sensor_id;sensor_type;location;lat;lon;timestamp;pressure;altitude;pressure_sealevel;temperature;humidity
8140;BME280;4111;50.972;7.072;2023-02-11T00:03:51;103044.16;;;6.41;82.34
8140;BME280;4111;50.972;7.072;2023-02-11T00:06:18;103041.44;;;6.41;82.53
8140;BME280;4111;50.972;7.072;2023-02-11T00:08:44;103039.09;;;6.38;82.43
8140;BME280;4111;50.972;7.072;2023-02-11T00:11:12;103030.78;;;6.31;82.33
8140;BME280;4111;50.972;7.072;2023-02-11T00:13:41;103041.91;;;6.28;82.76
8140;BME280;4111;50.972;7.072;2023-02-11T00:16:10;103031.59;;;6.24;83.40
8140;BME280;4111;50.972;7.072;2023-02-11T00:18:37;103033.44;;;6.23;82.75
8140;BME280;4111;50.972;7.072;2023-02-11T00:21:15;103033.28;;;6.25;83.41
8140;BME280;4111;50.972;7.072;2023-02-11T00:23:43;103024.16;;;6.26;82.89
8140;BME280;4111;50.972;7.072;2023-02-11T00:26:12;103040.38;;;6.26;83.02
8140;BME280;4111;50.972;7.072;2023-02-11T00:28:39;103029.38;;;6.19;82.76
8140;BME280;4111;50.972;7.072;2023-02-11T00:31:06;103023.16;;;6.19;83.35
8140;BME280;4111;50.972;7.072;2023-02-11T00:33:32;103023.16;;;6.19;83.09
8140;BME280;4111;50.972;7.072;2023-02-11T00:36:03;103021.66;;;6.24;83.23
8140;BME280;4111;50.972;7.072;2023-02-11T00:38:30;103026.84;;;6.18;83.52
8140;BME280;4111;50.972;7.072;2023-02-11T00:40:56;103017.22;;;6.15;83.64
8140;BME280;4111;50.972;7.072;2023-02-11T00:43:23;103023.03;;;6.02;84.17
8140;BME280;4111;50.972;7.072;2023-02-11T00:45:50;103018.81;;;6.00;84.33
8140;BME280;4111;50.972;7.072;2023-02-11T00:48:17;103014.28;;;6.00;84.39
8140;BME280;4111;50.972;7.072;2023-02-11T00:50:44;103017.03;;;6.08;84.28
8140;BME280;4111;50.972;7.072;2023-02-11T00:53:10;103002.53;;;6.09;84.21
8140;BME280;4111;50.972;7.072;2023-02-11T00:55:37;102998.47;;;6.05;84.73
8140;BME280;4111;50.972;7.072;2023-02-11T00:58:03;103008.88;;;6.00;84.77
8140;BME280;4111;50.972;7.072;2023-02-11T01:00:30;103001.66;;;6.01;84.68
8140;BME280;4111;50.972;7.072;2023-02-11T01:02:56;103005.19;;;6.01;84.61
8140;BME280;4111;50.972;7.072;2023-02-11T01:05:23;103003.13;;;5.95;84.49
8140;BME280;4111;50.972;7.072;2023-02-11T01:07:49;103005.25;;;5.91;85.42
8140;BME280;4111;50.972;7.072;2023-02-11T01:10:16;103007.34;;;5.98;85.24
8140;BME280;4111;50.972;7.072;2023-02-11T01:12:42;102995.03;;;5.95;84.91
8140;BME280;4111;50.972;7.072;2023-02-11T01:15:12;103011.34;;;5.93;85.52
8140;BME280;4111;50.972;7.072;2023-02-11T01:17:39;103016.13;;;5.73;85.61
8140;BME280;4111;50.972;7.072;2023-02-11T01:20:10;103010.66;;;5.65;85.74
8140;BME280;4111;50.972;7.072;2023-02-11T01:22:36;103014.34;;;5.64;85.96
8140;BME280;4111;50.972;7.072;2023-02-11T01:25:08;103006.22;;;5.56;86.04
8140;BME280;4111;50.972;7.072;2023-02-11T01:27:34;103000.97;;;5.54;86.28
8140;BME280;4111;50.972;7.072;2023-02-11T01:30:02;103004.34;;;5.56;86.57
8140;BME280;4111;50.972;7.072;2023-02-11T01:32:29;102993.53;;;5.48;86.74
8140;BME280;4111;50.972;7.072;2023-02-11T01:34:55;103010.53;;;5.49;86.71
8140;BME280;4111;50.972;7.072;2023-02-11T01:37:22;103008.66;;;5.41;86.65
8140;BME280;4111;50.972;7.072;2023-02-11T01:39:48;103002.38;;;5.41;87.15
8140;BME280;4111;50.972;7.072;2023-02-11T01:42:16;103019.09;;;5.44;87.31
8140;BME280;4111;50.972;7.072;2023-02-11T01:44:45;103022.91;;;5.33;87.50
8140;BME280;4111;50.972;7.072;2023-02-11T01:47:14;103029.97;;;5.34;87.70
8140;BME280;4111;50.972;7.072;2023-02-11T01:49:47;103029.97;;;5.34;87.99
8140;BME280;4111;50.972;7.072;2023-02-11T01:54:54;103030.09;;;5.51;89.04
8140;BME280;4111;50.972;7.072;2023-02-11T01:57:44;103018.28;;;5.70;88.83
8140;BME280;4111;50.972;7.072;2023-02-11T02:00:16;103017.88;;;5.83;89.29
8140;BME280;4111;50.972;7.072;2023-02-11T02:02:51;103005.56;;;5.88;89.42
8140;BME280;4111;50.972;7.072;2023-02-11T02:05:38;103004.16;;;6.02;90.02
8140;BME280;4111;50.972;7.072;2023-02-11T02:10:51;103014.75;;;6.30;89.46
8140;BME280;4111;50.972;7.072;2023-02-11T02:13:23;103008.38;;;6.39;89.32
8140;BME280;4111;50.972;7.072;2023-02-11T02:15:52;103009.75;;;6.43;89.15
8140;BME280;4111;50.972;7.072;2023-02-11T02:38:04;102990.25;;;6.66;88.99
8140;BME280;4111;50.972;7.072;2023-02-11T02:40:37;102981.81;;;6.69;89.09
8140;BME280;4111;50.972;7.072;2023-02-11T02:43:07;102984.50;;;6.69;89.17
8140;BME280;4111;50.972;7.072;2023-02-11T02:45:35;102985.72;;;6.74;89.05
8140;BME280;4111;50.972;7.072;2023-02-11T02:48:02;102970.34;;;6.75;88.82
8140;BME280;4111;50.972;7.072;2023-02-11T02:50:33;102962.75;;;6.79;88.72
8140;BME280;4111;50.972;7.072;2023-02-11T02:53:16;102960.22;;;6.77;88.70
8140;BME280;4111;50.972;7.072;2023-02-11T02:55:59;102966.66;;;6.76;88.21
8140;BME280;4111;50.972;7.072;2023-02-11T03:04:02;102946.72;;;6.69;88.60
8140;BME280;4111;50.972;7.072;2023-02-11T03:09:33;102964.25;;;6.65;88.92
8140;BME280;4111;50.972;7.072;2023-02-11T03:12:02;102954.81;;;6.69;88.87
8140;BME280;4111;50.972;7.072;2023-02-11T03:14:30;102955.84;;;6.68;88.97
8140;BME280;4111;50.972;7.072;2023-02-11T03:16:58;102960.56;;;6.66;88.89
8140;BME280;4111;50.972;7.072;2023-02-11T03:19:29;102958.88;;;6.65;88.91
8140;BME280;4111;50.972;7.072;2023-02-11T03:21:58;102958.34;;;6.69;89.04
8140;BME280;4111;50.972;7.072;2023-02-11T03:24:30;102960.22;;;6.69;89.13
8140;BME280;4111;50.972;7.072;2023-02-11T03:27:30;102960.06;;;6.70;88.91
8140;BME280;4111;50.972;7.072;2023-02-11T03:30:10;102963.59;;;6.71;89.14
8140;BME280;4111;50.972;7.072;2023-02-11T03:32:42;102966.13;;;6.72;88.93
8140;BME280;4111;50.972;7.072;2023-02-11T03:35:20;102962.09;;;6.77;89.13
8140;BME280;4111;50.972;7.072;2023-02-11T03:37:52;102949.09;;;6.80;88.72
8140;BME280;4111;50.972;7.072;2023-02-11T03:40:24;102948.06;;;6.81;88.50
8140;BME280;4111;50.972;7.072;2023-02-11T03:45:20;102932.22;;;6.86;88.58
8140;BME280;4111;50.972;7.072;2023-02-11T03:48:07;102930.72;;;6.84;88.24
8140;BME280;4111;50.972;7.072;2023-02-11T03:50:37;102929.88;;;6.83;88.56
8140;BME280;4111;50.972;7.072;2023-02-11T03:53:05;102938.97;;;6.82;88.69
8140;BME280;4111;50.972;7.072;2023-02-11T03:55:36;102950.09;;;6.79;88.53
8140;BME280;4111;50.972;7.072;2023-02-11T03:58:03;102949.78;;;6.74;88.88
8140;BME280;4111;50.972;7.072;2023-02-11T04:00:32;102951.28;;;6.77;89.28
8140;BME280;4111;50.972;7.072;2023-02-11T04:02:59;102951.81;;;6.80;88.67
8140;BME280;4111;50.972;7.072;2023-02-11T04:05:26;102959.59;;;6.83;89.03
8140;BME280;4111;50.972;7.072;2023-02-11T04:07:52;102962.28;;;6.83;89.19
8140;BME280;4111;50.972;7.072;2023-02-11T04:10:19;102957.88;;;6.82;89.23
8140;BME280;4111;50.972;7.072;2023-02-11T04:12:46;102953.50;;;6.89;89.13
8140;BME280;4111;50.972;7.072;2023-02-11T04:15:12;102954.34;;;6.90;89.04
8140;BME280;4111;50.972;7.072;2023-02-11T04:17:40;102949.94;;;6.89;88.77
8140;BME280;4111;50.972;7.072;2023-02-11T04:20:07;102942.50;;;6.91;88.88
8140;BME280;4111;50.972;7.072;2023-02-11T04:22:34;102952.47;;;6.90;89.18
8140;BME280;4111;50.972;7.072;2023-02-11T04:25:02;102947.06;;;6.90;88.99
8140;BME280;4111;50.972;7.072;2023-02-11T04:27:29;102952.84;;;6.87;88.50
8140;BME280;4111;50.972;7.072;2023-02-11T04:29:55;102939.13;;;6.89;88.81
8140;BME280;4111;50.972;7.072;2023-02-11T04:32:22;102933.25;;;6.85;88.76
8140;BME280;4111;50.972;7.072;2023-02-11T04:34:48;102933.25;;;6.85;89.30
8140;BME280;4111;50.972;7.072;2023-02-11T04:37:15;102926.81;;;6.86;89.21
8140;BME280;4111;50.972;7.072;2023-02-11T04:39:41;102921.25;;;6.88;89.08
8140;BME280;4111;50.972;7.072;2023-02-11T04:42:08;102923.13;;;6.87;89.26
8140;BME280;4111;50.972;7.072;2023-02-11T04:44:34;102921.78;;;6.91;88.84
8140;BME280;4111;50.972;7.072;2023-02-11T04:47:00;102911.28;;;6.88;89.05
8140;BME280;4111;50.972;7.072;2023-02-11T04:49:27;102915.84;;;6.88;88.93
8140;BME280;4111;50.972;7.072;2023-02-11T04:51:54;102921.09;;;6.89;89.31
8140;BME280;4111;50.972;7.072;2023-02-11T04:54:20;102923.97;;;6.96;89.17
8140;BME280;4111;50.972;7.072;2023-02-11T04:56:47;102921.09;;;6.98;88.87
8140;BME280;4111;50.972;7.072;2023-02-11T04:59:14;102920.25;;;6.97;88.81
8140;BME280;4111;50.972;7.072;2023-02-11T05:01:41;102924.13;;;7.03;88.70
8140;BME280;4111;50.972;7.072;2023-02-11T05:04:07;102926.16;;;7.01;89.02
8140;BME280;4111;50.972;7.072;2023-02-11T05:06:34;102928.84;;;7.01;89.14
8140;BME280;4111;50.972;7.072;2023-02-11T05:09:00;102936.28;;;7.07;89.22
8140;BME280;4111;50.972;7.072;2023-02-11T05:11:27;102936.28;;;7.07;89.27
8140;BME280;4111;50.972;7.072;2023-02-11T05:13:53;102927.50;;;7.05;89.06
8140;BME280;4111;50.972;7.072;2023-02-11T05:16:20;102928.50;;;7.12;89.09
8140;BME280;4111;50.972;7.072;2023-02-11T05:18:47;102928.19;;;7.15;88.70
8140;BME280;4111;50.972;7.072;2023-02-11T05:21:18;102928.50;;;7.12;88.71
8140;BME280;4111;50.972;7.072;2023-02-11T05:23:44;102919.06;;;7.08;88.88
8140;BME280;4111;50.972;7.072;2023-02-11T05:26:12;102925.47;;;7.07;88.84
8140;BME280;4111;50.972;7.072;2023-02-11T05:28:39;102924.47;;;7.08;88.86
8140;BME280;4111;50.972;7.072;2023-02-11T05:31:06;102926.50;;;7.06;88.88
8140;BME280;4111;50.972;7.072;2023-02-11T05:33:32;102930.53;;;7.10;88.77
8140;BME280;4111;50.972;7.072;2023-02-11T05:36:07;102926.31;;;7.15;88.83
8140;BME280;4111;50.972;7.072;2023-02-11T05:38:34;102935.63;;;7.13;88.61
8140;BME280;4111;50.972;7.072;2023-02-11T05:41:03;102923.09;;;7.12;89.00
8140;BME280;4111;50.972;7.072;2023-02-11T05:43:30;102924.44;;;7.16;88.70
8140;BME280;4111;50.972;7.072;2023-02-11T05:45:56;102919.72;;;7.18;88.63
8140;BME280;4111;50.972;7.072;2023-02-11T05:48:23;102922.94;;;7.13;88.70
8140;BME280;4111;50.972;7.072;2023-02-11T05:50:49;102921.75;;;7.08;89.15
8140;BME280;4111;50.972;7.072;2023-02-11T05:53:16;102920.94;;;7.07;89.06
8140;BME280;4111;50.972;7.072;2023-02-11T05:55:42;102914.66;;;7.07;89.69
8140;BME280;4111;50.972;7.072;2023-02-11T05:58:09;102916.03;;;7.11;89.99
8140;BME280;4111;50.972;7.072;2023-02-11T06:00:36;102916.88;;;7.11;89.62
8140;BME280;4111;50.972;7.072;2023-02-11T06:03:02;102907.22;;;7.09;89.75
8140;BME280;4111;50.972;7.072;2023-02-11T06:05:32;102900.97;;;7.08;89.86
8140;BME280;4111;50.972;7.072;2023-02-11T06:07:58;102897.59;;;7.06;89.68
8140;BME280;4111;50.972;7.072;2023-02-11T06:10:25;102890.19;;;7.08;90.00
8140;BME280;4111;50.972;7.072;2023-02-11T06:12:52;102894.75;;;7.08;90.49
8140;BME280;4111;50.972;7.072;2023-02-11T06:15:18;102890.34;;;7.07;90.49
8140;BME280;4111;50.972;7.072;2023-02-11T06:17:44;102898.44;;;7.07;90.66
8140;BME280;4111;50.972;7.072;2023-02-11T06:20:11;102895.09;;;7.13;91.02
8140;BME280;4111;50.972;7.072;2023-02-11T06:22:37;102894.41;;;7.11;91.03
8140;BME280;4111;50.972;7.072;2023-02-11T06:25:04;102902.84;;;7.16;90.83
8140;BME280;4111;50.972;7.072;2023-02-11T06:27:31;102901.16;;;7.15;91.08
8140;BME280;4111;50.972;7.072;2023-02-11T06:29:57;102908.59;;;7.13;91.40
8140;BME280;4111;50.972;7.072;2023-02-11T06:32:26;102903.88;;;7.15;91.43
8140;BME280;4111;50.972;7.072;2023-02-11T06:35:12;102907.22;;;7.09;91.87
8140;BME280;4111;50.972;7.072;2023-02-11T06:37:39;102903.69;;;7.08;92.18
8140;BME280;4111;50.972;7.072;2023-02-11T06:40:07;102910.97;;;7.08;92.60
8140;BME280;4111;50.972;7.072;2023-02-11T06:42:33;102911.28;;;7.05;93.20
8140;BME280;4111;50.972;7.072;2023-02-11T06:45:01;102909.59;;;7.04;93.33
8140;BME280;4111;50.972;7.072;2023-02-11T06:47:27;102907.59;;;7.06;94.05
8140;BME280;4111;50.972;7.072;2023-02-11T06:49:54;102915.31;;;7.09;93.70
8140;BME280;4111;50.972;7.072;2023-02-11T06:52:20;102917.72;;;7.12;93.91
8140;BME280;4111;50.972;7.072;2023-02-11T06:54:47;102919.56;;;7.20;93.78
8140;BME280;4111;50.972;7.072;2023-02-11T06:57:13;102923.78;;;7.22;93.72
8140;BME280;4111;50.972;7.072;2023-02-11T06:59:40;102929.53;;;7.19;93.74
8140;BME280;4111;50.972;7.072;2023-02-11T07:02:08;102921.44;;;7.19;94.20
8140;BME280;4111;50.972;7.072;2023-02-11T07:04:35;102928.50;;;7.20;93.72
8140;BME280;4111;50.972;7.072;2023-02-11T07:07:01;102934.56;;;7.22;94.63
8140;BME280;4111;50.972;7.072;2023-02-11T07:09:28;102930.03;;;7.23;94.27
8140;BME280;4111;50.972;7.072;2023-02-11T07:11:54;102931.03;;;7.22;94.77
8140;BME280;4111;50.972;7.072;2023-02-11T07:14:20;102932.56;;;7.24;95.11
8140;BME280;4111;50.972;7.072;2023-02-11T07:16:47;102925.97;;;7.27;94.91
8140;BME280;4111;50.972;7.072;2023-02-11T07:19:13;102926.81;;;7.27;94.74
8140;BME280;4111;50.972;7.072;2023-02-11T07:21:40;102922.44;;;7.18;95.37
8140;BME280;4111;50.972;7.072;2023-02-11T07:24:07;102936.28;;;7.15;95.69
8140;BME280;4111;50.972;7.072;2023-02-11T07:26:36;102934.94;;;7.19;95.95
8140;BME280;4111;50.972;7.072;2023-02-11T07:29:03;102943.19;;;7.26;95.90
8140;BME280;4111;50.972;7.072;2023-02-11T07:31:30;102942.19;;;7.27;96.34
8140;BME280;4111;50.972;7.072;2023-02-11T07:33:58;102950.09;;;7.28;96.99
8140;BME280;4111;50.972;7.072;2023-02-11T07:36:26;102954.84;;;7.26;97.19
8140;BME280;4111;50.972;7.072;2023-02-11T07:38:53;102953.47;;;7.30;97.74
8140;BME280;4111;50.972;7.072;2023-02-11T07:41:21;102955.50;;;7.28;98.08
8140;BME280;4111;50.972;7.072;2023-02-11T07:43:48;102963.13;;;7.33;98.28
8140;BME280;4111;50.972;7.072;2023-02-11T07:46:18;102955.72;;;7.27;98.79
8140;BME280;4111;50.972;7.072;2023-02-11T07:48:45;102955.72;;;7.27;98.83
8140;BME280;4111;50.972;7.072;2023-02-11T07:51:21;102960.44;;;7.33;99.19
8140;BME280;4111;50.972;7.072;2023-02-11T07:53:48;102956.84;;;7.32;98.76
8140;BME280;4111;50.972;7.072;2023-02-11T07:56:15;102955.34;;;7.30;99.36
8140;BME280;4111;50.972;7.072;2023-02-11T07:58:42;102959.75;;;7.31;99.37
8140;BME280;4111;50.972;7.072;2023-02-11T08:01:11;102961.94;;;7.35;99.73
8140;BME280;4111;50.972;7.072;2023-02-11T08:03:39;102969.03;;;7.37;99.74
8140;BME280;4111;50.972;7.072;2023-02-11T08:06:09;102976.78;;;7.40;99.64
8140;BME280;4111;50.972;7.072;2023-02-11T08:08:36;102978.97;;;7.44;99.62
8140;BME280;4111;50.972;7.072;2023-02-11T08:11:20;102982.56;;;7.45;99.95
8140;BME280;4111;50.972;7.072;2023-02-11T08:13:47;102982.03;;;7.41;99.69
8140;BME280;4111;50.972;7.072;2023-02-11T08:16:21;102983.22;;;7.39;100.00
8140;BME280;4111;50.972;7.072;2023-02-11T08:18:50;102981.53;;;7.38;100.00
8140;BME280;4111;50.972;7.072;2023-02-11T08:21:17;102978.81;;;7.46;100.00
8140;BME280;4111;50.972;7.072;2023-02-11T08:23:44;102976.97;;;7.38;99.69
8140;BME280;4111;50.972;7.072;2023-02-11T08:26:14;102971.03;;;7.34;100.00
8140;BME280;4111;50.972;7.072;2023-02-11T08:28:42;102975.97;;;7.39;100.00
8140;BME280;4111;50.972;7.072;2023-02-11T08:31:15;102972.06;;;7.42;100.00
8140;BME280;4111;50.972;7.072;2023-02-11T08:33:42;102975.28;;;7.37;100.00
8140;BME280;4111;50.972;7.072;2023-02-11T08:36:11;102974.44;;;7.37;100.00
8140;BME280;4111;50.972;7.072;2023-02-11T08:38:37;102982.19;;;7.40;100.00
8140;BME280;4111;50.972;7.072;2023-02-11T08:41:04;102978.31;;;7.34;100.00
8140;BME280;4111;50.972;7.072;2023-02-11T08:43:30;102983.56;;;7.35;100.00
8140;BME280;4111;50.972;7.072;2023-02-11T08:45:59;102977.31;;;7.35;100.00
8140;BME280;4111;50.972;7.072;2023-02-11T08:48:27;102982.56;;;7.37;100.00
8140;BME280;4111;50.972;7.072;2023-02-11T08:50:55;102982.19;;;7.40;100.00
8140;BME280;4111;50.972;7.072;2023-02-11T08:53:22;102992.00;;;7.41;100.00
8140;BME280;4111;50.972;7.072;2023-02-11T08:55:53;102994.03;;;7.39;100.00
8140;BME280;4111;50.972;7.072;2023-02-11T08:58:20;102989.31;;;7.41;100.00
8140;BME280;4111;50.972;7.072;2023-02-11T09:00:48;102997.41;;;7.41;100.00
8140;BME280;4111;50.972;7.072;2023-02-11T09:03:16;102995.41;;;7.43;100.00
8140;BME280;4111;50.972;7.072;2023-02-11T09:05:45;103007.88;;;7.44;100.00
8140;BME280;4111;50.972;7.072;2023-02-11T09:08:11;103019.34;;;7.54;100.00
8140;BME280;4111;50.972;7.072;2023-02-11T09:10:38;103019.03;;;7.57;100.00
8140;BME280;4111;50.972;7.072;2023-02-11T09:13:06;103030.19;;;7.62;100.00
8140;BME280;4111;50.972;7.072;2023-02-11T09:15:33;103026.13;;;7.66;100.00
8140;BME280;4111;50.972;7.072;2023-02-11T09:17:59;103025.75;;;7.69;100.00
8140;BME280;4111;50.972;7.072;2023-02-11T09:20:26;103029.50;;;7.68;100.00
8140;BME280;4111;50.972;7.072;2023-02-11T09:22:53;103028.81;;;7.58;100.00
8140;BME280;4111;50.972;7.072;2023-02-11T09:25:21;103036.09;;;7.58;100.00
8140;BME280;4111;50.972;7.072;2023-02-11T09:27:48;103024.44;;;7.57;100.00
8140;BME280;4111;50.972;7.072;2023-02-11T09:30:15;103023.91;;;7.53;100.00
8140;BME280;4111;50.972;7.072;2023-02-11T09:32:41;103033.53;;;7.56;100.00
8140;BME280;4111;50.972;7.072;2023-02-11T09:35:08;103028.81;;;7.58;100.00
8140;BME280;4111;50.972;7.072;2023-02-11T09:37:34;103028.13;;;7.56;100.00
8140;BME280;4111;50.972;7.072;2023-02-11T09:40:02;103038.63;;;7.59;100.00
8140;BME280;4111;50.972;7.072;2023-02-11T09:42:36;103028.47;;;7.61;100.00
8140;BME280;4111;50.972;7.072;2023-02-11T09:45:19;103027.47;;;7.62;100.00
8140;BME280;4111;50.972;7.072;2023-02-11T09:48:01;103028.16;;;7.64;100.00
8140;BME280;4111;50.972;7.072;2023-02-11T09:50:34;103038.09;;;7.64;100.00
8140;BME280;4111;50.972;7.072;2023-02-11T09:55:46;103046.06;;;7.57;100.00
8140;BME280;4111;50.972;7.072;2023-02-11T09:58:16;103049.44;;;7.59;100.00
8140;BME280;4111;50.972;7.072;2023-02-11T10:06:13;103045.06;;;7.66;100.00
8140;BME280;4111;50.972;7.072;2023-02-11T10:11:29;103055.69;;;7.68;100.00
8140;BME280;4111;50.972;7.072;2023-02-11T10:14:24;103063.28;;;7.72;100.00
8140;BME280;4111;50.972;7.072;2023-02-11T10:22:33;103071.06;;;7.67;100.00
8140;BME280;4111;50.972;7.072;2023-02-11T10:27:50;103058.19;;;7.78;100.00
8140;BME280;4111;50.972;7.072;2023-02-11T10:35:22;103060.22;;;7.84;100.00
8140;BME280;4111;50.972;7.072;2023-02-11T10:37:49;103064.31;;;7.88;100.00
8140;BME280;4111;50.972;7.072;2023-02-11T10:40:19;103060.59;;;7.81;100.00
8140;BME280;4111;50.972;7.072;2023-02-11T10:43:09;103068.34;;;7.84;100.00
8140;BME280;4111;50.972;7.072;2023-02-11T10:45:48;103070.56;;;7.80;100.00
8140;BME280;4111;50.972;7.072;2023-02-11T10:53:40;103065.97;;;7.89;100.00
8140;BME280;4111;50.972;7.072;2023-02-11T10:56:10;103069.34;;;7.91;100.00
8140;BME280;4111;50.972;7.072;2023-02-11T10:58:44;103069.03;;;7.94;100.00
8140;BME280;4111;50.972;7.072;2023-02-11T11:01:11;103067.00;;;7.96;100.00
8140;BME280;4111;50.972;7.072;2023-02-11T11:03:50;103069.84;;;7.94;100.00
8140;BME280;4111;50.972;7.072;2023-02-11T11:06:29;103072.41;;;7.96;100.00
8140;BME280;4111;50.972;7.072;2023-02-11T11:08:57;103067.81;;;7.97;100.00
8140;BME280;4111;50.972;7.072;2023-02-11T11:11:25;103068.81;;;7.95;100.00
8140;BME280;4111;50.972;7.072;2023-02-11T11:13:55;103063.94;;;7.91;100.00
8140;BME280;4111;50.972;7.072;2023-02-11T11:16:27;103065.13;;;7.97;100.00
8140;BME280;4111;50.972;7.072;2023-02-11T11:21:48;103064.94;;;7.98;100.00
8140;BME280;4111;50.972;7.072;2023-02-11T11:24:29;103064.59;;;8.01;100.00
8140;BME280;4111;50.972;7.072;2023-02-11T11:27:01;103066.28;;;8.02;100.00
8140;BME280;4111;50.972;7.072;2023-02-11T11:32:00;103055.31;;;7.95;100.00
8140;BME280;4111;50.972;7.072;2023-02-11T11:34:36;103058.50;;;7.99;100.00
8140;BME280;4111;50.972;7.072;2023-02-11T11:37:25;103051.06;;;8.01;100.00
8140;BME280;4111;50.972;7.072;2023-02-11T11:42:41;103053.06;;;8.07;100.00
8140;BME280;4111;50.972;7.072;2023-02-11T11:47:49;103053.88;;;8.24;100.00
8140;BME280;4111;50.972;7.072;2023-02-11T11:50:33;103053.06;;;8.24;100.00
8140;BME280;4111;50.972;7.072;2023-02-11T11:55:35;103046.28;;;8.20;100.00
8140;BME280;4111;50.972;7.072;2023-02-11T11:58:04;103051.69;;;8.28;100.00
8140;BME280;4111;50.972;7.072;2023-02-11T12:00:56;103046.94;;;8.30;100.00
8140;BME280;4111;50.972;7.072;2023-02-11T12:09:30;103049.94;;;8.35;100.00
8140;BME280;4111;50.972;7.072;2023-02-11T12:20:24;103047.94;;;8.29;100.00
8140;BME280;4111;50.972;7.072;2023-02-11T12:25:49;103052.00;;;8.25;100.00
8140;BME280;4111;50.972;7.072;2023-02-11T12:28:39;103055.41;;;8.19;100.00
8140;BME280;4111;50.972;7.072;2023-02-11T12:34:34;103053.72;;;8.26;100.00
8140;BME280;4111;50.972;7.072;2023-02-11T12:42:54;103052.34;;;8.30;100.00
8140;BME280;4111;50.972;7.072;2023-02-11T12:54:42;103048.25;;;8.42;100.00
8140;BME280;4111;50.972;7.072;2023-02-11T12:57:17;103056.72;;;8.47;100.00
8140;BME280;4111;50.972;7.072;2023-02-11T13:05:29;103033.84;;;8.50;100.00
8140;BME280;4111;50.972;7.072;2023-02-11T13:08:27;103035.72;;;8.49;100.00
8140;BME280;4111;50.972;7.072;2023-02-11T13:11:01;103030.31;;;8.49;100.00
8140;BME280;4111;50.972;7.072;2023-02-11T13:13:35;103032.34;;;8.47;100.00
8140;BME280;4111;50.972;7.072;2023-02-11T13:16:11;103036.91;;;8.47;100.00
8140;BME280;4111;50.972;7.072;2023-02-11T13:18:58;103034.84;;;8.49;100.00
8140;BME280;4111;50.972;7.072;2023-02-11T13:27:09;103030.34;;;8.41;100.00
8140;BME280;4111;50.972;7.072;2023-02-11T13:29:46;103032.03;;;8.42;100.00
8140;BME280;4111;50.972;7.072;2023-02-11T13:32:23;103043.53;;;8.36;100.00
8140;BME280;4111;50.972;7.072;2023-02-11T13:37:24;103026.47;;;8.27;100.00
8140;BME280;4111;50.972;7.072;2023-02-11T13:42:31;103038.97;;;8.28;100.00
8140;BME280;4111;50.972;7.072;2023-02-11T13:45:00;103035.41;;;8.36;100.00
8140;BME280;4111;50.972;7.072;2023-02-11T13:47:33;103039.81;;;8.45;100.00
8140;BME280;4111;50.972;7.072;2023-02-11T13:50:04;103037.09;;;8.45;100.00
8140;BME280;4111;50.972;7.072;2023-02-11T13:52:33;103035.53;;;8.51;100.00
8140;BME280;4111;50.972;7.072;2023-02-11T13:55:19;103031.31;;;8.40;100.00
8140;BME280;4111;50.972;7.072;2023-02-11T14:03:21;103028.59;;;8.48;100.00
8140;BME280;4111;50.972;7.072;2023-02-11T14:11:47;103029.56;;;8.64;100.00
8140;BME280;4111;50.972;7.072;2023-02-11T14:14:22;103029.56;;;8.64;100.00
8140;BME280;4111;50.972;7.072;2023-02-11T14:19:38;103033.94;;;8.65;100.00
8140;BME280;4111;50.972;7.072;2023-02-11T14:22:15;103027.84;;;8.63;100.00
8140;BME280;4111;50.972;7.072;2023-02-11T14:30:08;103024.97;;;8.64;100.00
8140;BME280;4111;50.972;7.072;2023-02-11T14:41:22;103046.81;;;8.63;100.00
8140;BME280;4111;50.972;7.072;2023-02-11T14:43:52;103045.09;;;8.70;100.00
8140;BME280;4111;50.972;7.072;2023-02-11T14:46:21;103041.00;;;8.74;100.00
8140;BME280;4111;50.972;7.072;2023-02-11T14:48:51;103036.56;;;8.81;100.00
8140;BME280;4111;50.972;7.072;2023-02-11T14:51:22;103037.22;;;8.83;100.00
8140;BME280;4111;50.972;7.072;2023-02-11T14:54:02;103035.84;;;8.87;100.00
8140;BME280;4111;50.972;7.072;2023-02-11T14:56:30;103035.53;;;8.82;100.00
8140;BME280;4111;50.972;7.072;2023-02-11T14:58:57;103039.94;;;8.83;100.00
8140;BME280;4111;50.972;7.072;2023-02-11T15:01:38;103047.69;;;8.86;100.00
8140;BME280;4111;50.972;7.072;2023-02-11T15:04:21;103040.91;;;8.90;100.00
8140;BME280;4111;50.972;7.072;2023-02-11T15:06:48;103046.97;;;8.92;100.00
8140;BME280;4111;50.972;7.072;2023-02-11T15:09:20;103037.00;;;8.93;100.00
8140;BME280;4111;50.972;7.072;2023-02-11T15:11:52;103042.53;;;9.00;100.00
8140;BME280;4111;50.972;7.072;2023-02-11T15:14:29;103033.41;;;9.01;100.00
8140;BME280;4111;50.972;7.072;2023-02-11T15:16:59;103038.81;;;9.01;100.00
8140;BME280;4111;50.972;7.072;2023-02-11T15:19:38;103042.69;;;9.06;100.00
8140;BME280;4111;50.972;7.072;2023-02-11T15:22:19;103045.56;;;9.05;100.00
8140;BME280;4111;50.972;7.072;2023-02-11T15:27:42;103051.00;;;9.05;100.00
8140;BME280;4111;50.972;7.072;2023-02-11T15:32:56;103064.06;;;9.01;100.00
8140;BME280;4111;50.972;7.072;2023-02-11T15:35:34;103063.00;;;9.02;100.00
8140;BME280;4111;50.972;7.072;2023-02-11T15:38:03;103060.50;;;9.01;100.00
8140;BME280;4111;50.972;7.072;2023-02-11T15:40:32;103065.78;;;8.94;100.00
8140;BME280;4111;50.972;7.072;2023-02-11T15:43:08;103067.09;;;8.98;100.00
8140;BME280;4111;50.972;7.072;2023-02-11T15:45:38;103066.75;;;9.01;100.00
8140;BME280;4111;50.972;7.072;2023-02-11T15:48:13;103061.69;;;8.98;100.00
8140;BME280;4111;50.972;7.072;2023-02-11T15:50:42;103066.28;;;8.98;100.00
8140;BME280;4111;50.972;7.072;2023-02-11T15:53:51;103069.09;;;9.04;100.00
8140;BME280;4111;50.972;7.072;2023-02-11T15:56:17;103065.56;;;9.04;100.00
8140;BME280;4111;50.972;7.072;2023-02-11T15:58:46;103069.59;;;9.08;100.00
8140;BME280;4111;50.972;7.072;2023-02-11T16:01:14;103067.91;;;9.07;100.00
8140;BME280;4111;50.972;7.072;2023-02-11T16:03:42;103066.22;;;9.06;100.00
8140;BME280;4111;50.972;7.072;2023-02-11T16:06:24;103067.25;;;9.05;100.00
8140;BME280;4111;50.972;7.072;2023-02-11T16:09:21;103072.19;;;9.01;100.00
8140;BME280;4111;50.972;7.072;2023-02-11T16:14:28;103078.25;;;9.03;100.00
8140;BME280;4111;50.972;7.072;2023-02-11T16:17:08;103087.72;;;9.07;100.00
8140;BME280;4111;50.972;7.072;2023-02-11T16:19:42;103084.84;;;9.09;100.00
8140;BME280;4111;50.972;7.072;2023-02-11T16:22:16;103083.81;;;9.10;100.00
8140;BME280;4111;50.972;7.072;2023-02-11T16:24:45;103080.25;;;9.09;100.00